Time,TemperatureF,DewpointF,PressureIn,WindDirection,WindDirectionDegrees,WindSpeedMPH,WindSpeedGustMPH,Humidity,HourlyPrecipIn,Conditions,Clouds,dailyrainin,SoftwareType,DateUTC
2014-01-16 00:03:00,25.6,19.1,29.69,SSW,207,15.0,15.0,76,0.00,,,0.00,Wunderground v.1.15,2014-01-16 06:03:00,
2014-01-16 00:08:00,25.6,19.1,29.69,SSW,197,13.0,18.0,76,0.00,,,0.00,Wunderground v.1.15,2014-01-16 06:08:00,
2014-01-16 00:14:00,25.8,19.6,29.68,SSW,200,16.0,22.0,77,0.00,,,0.00,Wunderground v.1.15,2014-01-16 06:14:00,
2014-01-16 00:19:00,26.2,20.0,29.67,SW,219,14.0,22.0,77,0.00,,,0.00,Wunderground v.1.15,2014-01-16 06:19:00,
2014-01-16 00:25:00,26.5,20.0,29.67,SW,215,15.0,18.0,76,0.00,,,0.00,Wunderground v.1.15,2014-01-16 06:25:00,
2014-01-16 00:30:00,26.4,20.2,29.67,SW,223,15.0,19.0,77,0.00,,,0.00,Wunderground v.1.15,2014-01-16 06:30:00,
2014-01-16 00:35:00,26.5,20.3,29.68,SSW,212,16.0,18.0,77,0.00,,,0.00,Wunderground v.1.15,2014-01-16 06:35:00,
2014-01-16 00:40:00,26.7,20.5,29.67,SW,222,16.0,18.0,77,0.00,,,0.00,Wunderground v.1.15,2014-01-16 06:40:00,
2014-01-16 00:45:00,26.8,20.9,29.68,SSW,211,16.0,19.0,78,0.00,,,0.00,Wunderground v.1.15,2014-01-16 06:45:00,
2014-01-16 00:50:00,26.8,20.9,29.67,SW,219,19.0,19.0,78,0.00,,,0.00,Wunderground v.1.15,2014-01-16 06:50:00,
2014-01-16 00:56:00,26.9,21.0,29.67,SSW,204,15.0,16.0,78,0.00,,,0.00,Wunderground v.1.15,2014-01-16 06:56:00,
2014-01-16 01:01:00,27.0,21.1,29.67,SW,217,16.0,16.0,78,0.00,,,0.00,Wunderground v.1.15,2014-01-16 07:01:00,
2014-01-16 01:06:00,27.0,21.1,29.67,SSW,209,17.0,17.0,78,0.00,,,0.00,Wunderground v.1.15,2014-01-16 07:06:00,
2014-01-16 01:12:00,26.9,21.3,29.66,SW,217,13.0,13.0,79,0.00,,,0.00,Wunderground v.1.15,2014-01-16 07:12:00,
2014-01-16 01:18:00,26.9,21.3,29.66,SW,229,11.0,15.0,79,0.00,,,0.00,Wunderground v.1.15,2014-01-16 07:18:00,
2014-01-16 01:23:00,26.9,21.3,29.67,SSW,201,10.0,12.0,79,0.00,,,0.00,Wunderground v.1.15,2014-01-16 07:23:00,
2014-01-16 01:29:00,26.9,21.3,29.66,SW,215,12.0,13.0,79,0.00,,,0.00,Wunderground v.1.15,2014-01-16 07:29:00,
2014-01-16 01:34:00,26.9,21.3,29.66,SSW,207,13.0,13.0,79,0.00,,,0.00,Wunderground v.1.15,2014-01-16 07:34:00,
2014-01-16 01:40:00,27.0,21.4,29.66,SSW,205,11.0,14.0,79,0.00,,,0.00,Wunderground v.1.15,2014-01-16 07:40:00,
2014-01-16 01:45:00,26.9,21.3,29.65,SSW,202,10.0,12.0,79,0.00,,,0.00,Wunderground v.1.15,2014-01-16 07:45:00,
2014-01-16 01:50:00,26.8,21.5,29.65,SSW,207,13.0,13.0,80,0.00,,,0.00,Wunderground v.1.15,2014-01-16 07:50:00,
2014-01-16 01:55:00,26.9,21.6,29.65,SSW,207,10.0,12.0,80,0.00,,,0.00,Wunderground v.1.15,2014-01-16 07:55:00,
2014-01-16 02:00:00,27.0,21.7,29.65,SSW,198,10.0,10.0,80,0.00,,,0.00,Wunderground v.1.15,2014-01-16 08:00:00,
2014-01-16 02:05:00,27.1,21.7,29.65,SW,216,9.0,12.0,80,0.00,,,0.00,Wunderground v.1.15,2014-01-16 08:05:00,
2014-01-16 02:10:00,27.1,21.7,29.65,SSW,208,9.0,11.0,80,0.00,,,0.00,Wunderground v.1.15,2014-01-16 08:10:00,
2014-01-16 02:15:00,27.2,21.8,29.65,SSW,207,9.0,10.0,80,0.00,,,0.00,Wunderground v.1.15,2014-01-16 08:15:00,
2014-01-16 02:20:00,27.2,22.1,29.64,SSW,211,11.0,11.0,81,0.00,,,0.00,Wunderground v.1.15,2014-01-16 08:20:00,
2014-01-16 02:25:00,27.3,21.9,29.64,SSW,208,11.0,12.0,80,0.00,,,0.00,Wunderground v.1.15,2014-01-16 08:25:00,
2014-01-16 02:30:00,27.3,21.9,29.64,SSW,207,8.0,12.0,80,0.00,,,0.00,Wunderground v.1.15,2014-01-16 08:30:00,
2014-01-16 02:35:00,27.2,21.8,29.64,SSW,213,11.0,12.0,80,0.00,,,0.00,Wunderground v.1.15,2014-01-16 08:35:00,
2014-01-16 02:40:00,27.2,22.1,29.63,SSW,207,10.0,14.0,81,0.00,,,0.00,Wunderground v.1.15,2014-01-16 08:40:00,
2014-01-16 02:45:00,27.2,22.1,29.63,SSW,199,9.0,11.0,81,0.00,,,0.00,Wunderground v.1.15,2014-01-16 08:45:00,
2014-01-16 02:50:00,27.1,22.0,29.62,South,191,8.0,11.0,81,0.00,,,0.00,Wunderground v.1.15,2014-01-16 08:50:00,
2014-01-16 02:55:00,26.8,22.0,29.63,SSW,205,7.0,10.0,82,0.00,,,0.00,Wunderground v.1.15,2014-01-16 08:55:00,
2014-01-16 03:00:00,26.9,22.1,29.62,SW,214,8.0,8.0,82,0.00,,,0.00,Wunderground v.1.15,2014-01-16 09:00:00,
2014-01-16 03:05:00,27.3,22.5,29.62,SSW,211,9.0,10.0,82,0.00,,,0.00,Wunderground v.1.15,2014-01-16 09:05:00,
2014-01-16 03:10:00,27.4,22.6,29.62,South,188,11.0,11.0,82,0.00,,,0.00,Wunderground v.1.15,2014-01-16 09:10:00,
2014-01-16 03:15:00,27.5,22.7,29.61,SSW,207,7.0,10.0,82,0.00,,,0.00,Wunderground v.1.15,2014-01-16 09:15:00,
2014-01-16 03:20:00,27.5,22.7,29.61,SSW,209,6.0,10.0,82,0.00,,,0.00,Wunderground v.1.15,2014-01-16 09:20:00,
2014-01-16 03:25:00,27.5,22.7,29.61,SW,223,8.0,9.0,82,0.00,,,0.00,Wunderground v.1.15,2014-01-16 09:25:00,
2014-01-16 03:30:00,27.4,22.3,29.61,SSW,207,5.0,9.0,81,0.00,,,0.00,Wunderground v.1.15,2014-01-16 09:30:00,
2014-01-16 03:35:00,27.4,22.6,29.61,SW,220,9.0,12.0,82,0.00,,,0.00,Wunderground v.1.15,2014-01-16 09:35:00,
2014-01-16 03:40:00,27.4,22.6,29.60,SSW,202,5.0,12.0,82,0.00,,,0.00,Wunderground v.1.15,2014-01-16 09:40:00,
2014-01-16 03:52:00,27.0,22.2,29.60,SSW,213,7.0,7.0,82,0.00,,,0.00,Wunderground v.1.15,2014-01-16 09:52:00,
2014-01-16 03:57:00,26.9,22.4,29.60,SW,217,5.0,9.0,83,0.00,,,0.00,Wunderground v.1.15,2014-01-16 09:57:00,
2014-01-16 04:03:00,26.7,22.2,29.59,SW,219,6.0,6.0,83,0.00,,,0.00,Wunderground v.1.15,2014-01-16 10:03:00,
2014-01-16 04:08:00,26.4,21.9,29.59,SW,232,3.0,7.0,83,0.00,,,0.00,Wunderground v.1.15,2014-01-16 10:08:00,
2014-01-16 04:13:00,26.3,22.1,29.58,SSW,212,5.0,7.0,84,0.00,,,0.00,Wunderground v.1.15,2014-01-16 10:13:00,
2014-01-16 04:18:00,26.2,22.0,29.58,SW,223,4.0,7.0,84,0.00,,,0.00,Wunderground v.1.15,2014-01-16 10:18:00,
2014-01-16 04:23:00,26.2,22.0,29.58,SW,221,6.0,7.0,84,0.00,,,0.00,Wunderground v.1.15,2014-01-16 10:23:00,
2014-01-16 04:29:00,27.0,23.4,29.58,WSW,245,7.0,10.0,86,0.00,,,0.00,Wunderground v.1.15,2014-01-16 10:29:00,
2014-01-16 04:34:00,28.2,24.3,29.57,WSW,248,5.0,9.0,85,0.00,,,0.00,Wunderground v.1.15,2014-01-16 10:34:00,
2014-01-16 04:39:00,28.9,24.4,29.57,SW,236,7.0,10.0,83,0.00,,,0.00,Wunderground v.1.15,2014-01-16 10:39:00,
2014-01-16 04:45:00,29.3,24.5,29.57,WSW,246,7.0,7.0,82,0.00,,,0.00,Wunderground v.1.15,2014-01-16 10:45:00,
2014-01-16 04:50:00,29.6,24.8,29.57,WSW,244,6.0,10.0,82,0.00,,,0.00,Wunderground v.1.15,2014-01-16 10:50:00,
2014-01-16 04:56:00,29.2,24.1,29.57,SW,232,5.0,6.0,81,0.00,,,0.00,Wunderground v.1.15,2014-01-16 10:56:00,
2014-01-16 05:03:00,28.1,23.3,29.57,SW,232,4.0,4.0,82,0.00,,,0.00,Wunderground v.1.15,2014-01-16 11:03:00,
2014-01-16 05:08:00,27.7,23.2,29.57,SW,227,5.0,6.0,83,0.00,,,0.00,Wunderground v.1.15,2014-01-16 11:08:00,
2014-01-16 05:13:00,27.7,23.8,29.57,WSW,242,5.0,7.0,85,0.00,,,0.00,Wunderground v.1.15,2014-01-16 11:13:00,
2014-01-16 05:18:00,28.3,24.4,29.57,WSW,240,7.0,8.0,85,0.00,,,0.00,Wunderground v.1.15,2014-01-16 11:18:00,
2014-01-16 05:23:00,28.9,25.0,29.57,WSW,241,6.0,6.0,85,0.00,,,0.00,Wunderground v.1.15,2014-01-16 11:23:00,
2014-01-16 05:28:00,29.5,25.3,29.57,SW,236,5.0,9.0,84,0.00,,,0.00,Wunderground v.1.15,2014-01-16 11:28:00,
2014-01-16 05:33:00,30.0,25.8,29.57,WSW,245,9.0,9.0,84,0.00,,,0.00,Wunderground v.1.15,2014-01-16 11:33:00,
2014-01-16 05:38:00,30.5,26.0,29.57,WSW,246,8.0,9.0,83,0.00,,,0.00,Wunderground v.1.15,2014-01-16 11:38:00,
2014-01-16 05:43:00,30.9,26.3,29.57,WSW,244,8.0,8.0,83,0.00,,,0.00,Wunderground v.1.15,2014-01-16 11:43:00,
2014-01-16 05:48:00,31.2,26.3,29.56,WSW,257,7.0,8.0,82,0.00,,,0.00,Wunderground v.1.15,2014-01-16 11:48:00,
2014-01-16 05:53:00,31.6,26.4,29.56,WSW,254,5.0,7.0,81,0.00,,,0.00,Wunderground v.1.15,2014-01-16 11:53:00,
2014-01-16 05:58:00,31.8,26.9,29.56,WSW,249,7.0,11.0,82,0.00,,,0.00,Wunderground v.1.15,2014-01-16 11:58:00,
2014-01-16 06:03:00,32.0,26.8,29.57,WSW,256,6.0,7.0,81,0.00,,,0.00,Wunderground v.1.15,2014-01-16 12:03:00,
2014-01-16 06:08:00,32.3,27.1,29.56,WSW,258,7.0,10.0,81,0.00,,,0.00,Wunderground v.1.15,2014-01-16 12:08:00,
2014-01-16 06:13:00,32.5,27.3,29.57,WSW,246,9.0,10.0,81,0.00,,,0.00,Wunderground v.1.15,2014-01-16 12:13:00,
2014-01-16 06:18:00,32.5,27.3,29.56,WSW,248,6.0,10.0,81,0.00,,,0.00,Wunderground v.1.15,2014-01-16 12:18:00,
2014-01-16 06:23:00,32.5,27.6,29.56,West,261,11.0,13.0,82,0.00,,,0.00,Wunderground v.1.15,2014-01-16 12:23:00,
2014-01-16 06:28:00,32.8,27.6,29.57,West,259,11.0,13.0,81,0.00,,,0.00,Wunderground v.1.15,2014-01-16 12:28:00,
2014-01-16 06:33:00,32.9,27.7,29.57,West,267,8.0,9.0,81,0.00,,,0.00,Wunderground v.1.15,2014-01-16 12:33:00,
2014-01-16 06:38:00,33.1,27.9,29.57,West,274,9.0,14.0,81,0.00,,,0.00,Wunderground v.1.15,2014-01-16 12:38:00,
2014-01-16 06:43:00,33.3,28.1,29.56,West,275,12.0,14.0,81,0.00,,,0.00,Wunderground v.1.15,2014-01-16 12:43:00,
2014-01-16 06:48:00,33.5,28.3,29.56,West,271,9.0,14.0,81,0.00,,,0.00,Wunderground v.1.15,2014-01-16 12:48:00,
2014-01-16 06:53:00,33.5,28.3,29.56,WSW,254,8.0,9.0,81,0.00,,,0.00,Wunderground v.1.15,2014-01-16 12:53:00,
2014-01-16 06:58:00,33.5,28.3,29.56,West,260,9.0,12.0,81,0.00,,,0.00,Wunderground v.1.15,2014-01-16 12:58:00,
2014-01-16 07:03:00,33.6,28.4,29.56,WSW,252,8.0,10.0,81,0.00,,,0.00,Wunderground v.1.15,2014-01-16 13:03:00,
2014-01-16 07:08:00,33.7,28.5,29.56,WSW,258,11.0,12.0,81,0.00,,,0.00,Wunderground v.1.15,2014-01-16 13:08:00,
2014-01-16 07:13:00,33.6,28.4,29.56,West,259,8.0,10.0,81,0.00,,,0.00,Wunderground v.1.15,2014-01-16 13:13:00,
2014-01-16 07:18:00,33.7,28.5,29.56,West,264,10.0,12.0,81,0.00,,,0.00,Wunderground v.1.15,2014-01-16 13:18:00,
2014-01-16 07:23:00,33.9,28.7,29.56,WSW,257,8.0,11.0,81,0.00,,,0.00,Wunderground v.1.15,2014-01-16 13:23:00,
2014-01-16 07:28:00,33.9,28.7,29.56,West,263,9.0,12.0,81,0.00,,,0.00,Wunderground v.1.15,2014-01-16 13:28:00,
2014-01-16 07:33:00,34.1,28.9,29.56,West,269,11.0,13.0,81,0.00,,,0.00,Wunderground v.1.15,2014-01-16 13:33:00,
2014-01-16 07:38:00,34.3,28.8,29.56,WSW,247,8.0,13.0,80,0.00,,,0.00,Wunderground v.1.15,2014-01-16 13:38:00,
2014-01-16 07:43:00,34.4,28.9,29.56,West,267,12.0,12.0,80,0.00,,,0.00,Wunderground v.1.15,2014-01-16 13:43:00,
2014-01-16 07:48:00,34.5,29.0,29.56,West,266,11.0,15.0,80,0.00,,,0.00,Wunderground v.1.15,2014-01-16 13:48:00,
2014-01-16 07:53:00,34.7,29.2,29.56,West,275,13.0,15.0,80,0.00,,,0.00,Wunderground v.1.15,2014-01-16 13:53:00,
2014-01-16 07:58:00,34.8,29.0,29.56,West,271,9.0,15.0,79,0.00,,,0.00,Wunderground v.1.15,2014-01-16 13:58:00,
2014-01-16 08:03:00,34.7,29.2,29.56,West,268,9.0,16.0,80,0.00,,,0.00,Wunderground v.1.15,2014-01-16 14:03:00,
2014-01-16 08:08:00,34.7,29.2,29.56,West,262,14.0,16.0,80,0.00,,,0.00,Wunderground v.1.15,2014-01-16 14:08:00,
2014-01-16 08:13:00,34.8,29.3,29.56,West,268,11.0,14.0,80,0.00,,,0.00,Wunderground v.1.15,2014-01-16 14:13:00,
2014-01-16 08:18:00,34.7,29.2,29.56,WSW,258,9.0,16.0,80,0.00,,,0.00,Wunderground v.1.15,2014-01-16 14:18:00,
2014-01-16 08:23:00,34.6,29.4,29.56,WSW,257,9.0,14.0,81,0.00,,,0.00,Wunderground v.1.15,2014-01-16 14:23:00,
2014-01-16 08:28:00,34.6,29.4,29.56,WNW,284,13.0,14.0,81,0.00,,,0.00,Wunderground v.1.15,2014-01-16 14:28:00,
2014-01-16 08:33:00,34.8,29.9,29.56,West,279,14.0,15.0,82,0.00,,,0.00,Wunderground v.1.15,2014-01-16 14:33:00,
2014-01-16 08:38:00,35.0,30.1,29.56,WNW,298,13.0,19.0,82,0.00,,,0.00,Wunderground v.1.15,2014-01-16 14:38:00,
2014-01-16 08:43:00,35.1,30.5,29.56,WNW,292,13.0,18.0,83,0.00,,,0.00,Wunderground v.1.15,2014-01-16 14:43:00,
2014-01-16 08:48:00,35.2,30.6,29.56,WNW,284,12.0,19.0,83,0.00,,,0.00,Wunderground v.1.15,2014-01-16 14:48:00,
2014-01-16 08:53:00,35.2,30.6,29.56,WNW,289,15.0,15.0,83,0.00,,,0.00,Wunderground v.1.15,2014-01-16 14:53:00,
2014-01-16 08:58:00,35.3,30.7,29.56,West,269,13.0,19.0,83,0.00,,,0.00,Wunderground v.1.15,2014-01-16 14:58:00,
2014-01-16 09:03:00,35.4,30.8,29.56,WNW,289,12.0,17.0,83,0.00,,,0.00,Wunderground v.1.15,2014-01-16 15:03:00,
2014-01-16 09:08:00,35.4,31.0,29.56,West,275,13.0,17.0,84,0.00,,,0.00,Wunderground v.1.15,2014-01-16 15:08:00,
2014-01-16 09:13:00,35.5,30.8,29.56,West,281,17.0,17.0,83,0.00,,,0.00,Wunderground v.1.15,2014-01-16 15:13:00,
2014-01-16 09:18:00,35.4,31.0,29.56,West,274,17.0,19.0,84,0.00,,,0.00,Wunderground v.1.15,2014-01-16 15:18:00,
2014-01-16 09:23:00,35.3,30.9,29.56,West,280,18.0,18.0,84,0.00,,,0.00,Wunderground v.1.15,2014-01-16 15:23:00,
2014-01-16 09:28:00,35.3,31.2,29.56,West,279,12.0,18.0,85,0.00,,,0.00,Wunderground v.1.15,2014-01-16 15:28:00,
2014-01-16 09:33:00,35.3,31.2,29.56,West,270,12.0,15.0,85,0.00,,,0.00,Wunderground v.1.15,2014-01-16 15:33:00,
2014-01-16 09:38:00,35.4,31.3,29.57,WNW,283,13.0,20.0,85,0.00,,,0.00,Wunderground v.1.15,2014-01-16 15:38:00,
2014-01-16 09:43:00,35.4,31.3,29.57,West,275,15.0,20.0,85,0.00,,,0.00,Wunderground v.1.15,2014-01-16 15:43:00,
2014-01-16 09:48:00,35.4,31.3,29.57,WNW,292,17.0,21.0,85,0.00,,,0.00,Wunderground v.1.15,2014-01-16 15:48:00,
2014-01-16 09:53:00,35.4,31.3,29.57,West,277,18.0,22.0,85,0.00,,,0.00,Wunderground v.1.15,2014-01-16 15:53:00,
2014-01-16 09:58:00,35.4,31.3,29.57,WNW,292,17.0,22.0,85,0.00,,,0.00,Wunderground v.1.15,2014-01-16 15:58:00,
2014-01-16 10:03:00,35.3,31.5,29.57,West,278,20.0,20.0,86,0.00,,,0.00,Wunderground v.1.15,2014-01-16 16:03:00,
2014-01-16 10:08:00,35.2,31.7,29.57,WNW,284,13.0,23.0,87,0.00,,,0.00,Wunderground v.1.15,2014-01-16 16:08:00,
2014-01-16 10:14:00,34.7,31.5,29.57,West,280,19.0,28.0,88,0.00,,,0.00,Wunderground v.1.15,2014-01-16 16:14:00,
2014-01-16 10:19:00,34.5,31.6,29.58,West,275,18.0,28.0,89,0.00,,,0.00,Wunderground v.1.15,2014-01-16 16:19:00,
2014-01-16 10:24:00,34.5,31.3,29.58,WNW,289,24.0,24.0,88,0.00,,,0.00,Wunderground v.1.15,2014-01-16 16:24:00,
2014-01-16 10:29:00,34.4,30.9,29.58,NW,308,19.0,30.0,87,0.00,,,0.00,Wunderground v.1.15,2014-01-16 16:29:00,
2014-01-16 10:34:00,34.1,31.2,29.59,WNW,303,16.0,25.0,89,0.00,,,0.00,Wunderground v.1.15,2014-01-16 16:34:00,
2014-01-16 10:39:00,33.7,31.1,29.59,WNW,302,19.0,25.0,90,0.00,,,0.00,Wunderground v.1.15,2014-01-16 16:39:00,
2014-01-16 10:44:00,33.5,30.9,29.59,NW,318,27.0,27.0,90,0.00,,,0.00,Wunderground v.1.15,2014-01-16 16:44:00,
2014-01-16 10:49:00,33.4,29.7,29.59,NW,304,24.0,33.0,86,0.00,,,0.00,Wunderground v.1.15,2014-01-16 16:49:00,
2014-01-16 10:54:00,33.3,29.8,29.59,NW,313,23.0,27.0,87,0.00,,,0.00,Wunderground v.1.15,2014-01-16 16:54:00,
2014-01-16 10:59:00,33.1,29.7,29.59,NW,304,16.0,27.0,87,0.00,,,0.00,Wunderground v.1.15,2014-01-16 16:59:00,
2014-01-16 11:04:00,32.9,29.7,29.59,NW,312,26.0,27.0,88,0.00,,,0.00,Wunderground v.1.15,2014-01-16 17:04:00,
2014-01-16 11:09:00,32.3,29.4,29.60,NW,314,19.0,22.0,89,0.00,,,0.00,Wunderground v.1.15,2014-01-16 17:09:00,
2014-01-16 11:14:00,31.9,29.3,29.60,NW,306,27.0,28.0,90,0.00,,,0.00,Wunderground v.1.15,2014-01-16 17:14:00,
2014-01-16 11:19:00,31.6,29.0,29.60,WNW,300,21.0,28.0,90,0.00,,,0.00,Wunderground v.1.15,2014-01-16 17:19:00,
2014-01-16 11:24:00,31.6,29.0,29.60,NW,310,19.0,25.0,90,0.00,,,0.00,Wunderground v.1.15,2014-01-16 17:24:00,
2014-01-16 11:29:00,31.6,28.7,29.60,NW,313,17.0,28.0,89,0.00,,,0.00,Wunderground v.1.15,2014-01-16 17:29:00,
2014-01-16 11:34:00,31.6,28.5,29.61,NW,311,24.0,26.0,88,0.00,,,0.00,Wunderground v.1.15,2014-01-16 17:34:00,
2014-01-16 11:39:00,31.5,28.6,29.60,NW,317,26.0,30.0,89,0.00,,,0.00,Wunderground v.1.15,2014-01-16 17:39:00,
2014-01-16 11:44:00,31.3,28.4,29.60,NW,305,19.0,23.0,89,0.00,,,0.00,Wunderground v.1.15,2014-01-16 17:44:00,
2014-01-16 11:49:00,31.3,28.2,29.60,NNW,328,24.0,27.0,88,0.00,,,0.00,Wunderground v.1.15,2014-01-16 17:49:00,
2014-01-16 11:54:00,31.1,25.0,29.60,NW,325,27.0,30.0,78,0.00,,,0.00,Wunderground v.1.15,2014-01-16 17:54:00,
2014-01-16 11:59:00,31.0,24.3,29.60,NW,311,20.0,32.0,76,0.00,,,0.00,Wunderground v.1.15,2014-01-16 17:59:00,
2014-01-16 12:04:00,31.1,25.0,29.60,NNW,342,14.0,24.0,78,0.00,,,0.00,Wunderground v.1.15,2014-01-16 18:04:00,
2014-01-16 12:09:00,31.4,26.2,29.60,NNW,328,21.0,27.0,81,0.00,,,0.00,Wunderground v.1.15,2014-01-16 18:09:00,
2014-01-16 12:14:00,31.4,25.0,29.60,NW,326,20.0,29.0,77,0.00,,,0.00,Wunderground v.1.15,2014-01-16 18:14:00,
2014-01-16 12:19:00,31.4,25.3,29.60,NW,325,21.0,29.0,78,0.00,,,0.00,Wunderground v.1.15,2014-01-16 18:19:00,
2014-01-16 12:24:00,31.4,25.3,29.60,NW,321,29.0,29.0,78,0.00,,,0.00,Wunderground v.1.15,2014-01-16 18:24:00,
2014-01-16 12:29:00,31.5,25.1,29.61,NNW,330,19.0,29.0,77,0.00,,,0.00,Wunderground v.1.15,2014-01-16 18:29:00,
2014-01-16 12:34:00,31.6,25.5,29.61,NW,321,18.0,21.0,78,0.00,,,0.00,Wunderground v.1.15,2014-01-16 18:34:00,
2014-01-16 12:39:00,32.0,26.8,29.60,WNW,294,21.0,24.0,81,0.00,,,0.00,Wunderground v.1.15,2014-01-16 18:39:00,
2014-01-16 12:44:00,32.1,26.0,29.60,NW,311,24.0,26.0,78,0.00,,,0.00,Wunderground v.1.15,2014-01-16 18:44:00,
2014-01-16 12:49:00,32.1,25.7,29.61,NW,313,17.0,26.0,77,0.00,,,0.00,Wunderground v.1.15,2014-01-16 18:49:00,
2014-01-16 12:54:00,32.2,25.8,29.61,NW,314,20.0,23.0,77,0.00,,,0.00,Wunderground v.1.15,2014-01-16 18:54:00,
2014-01-16 12:59:00,32.1,25.7,29.61,NW,313,17.0,25.0,77,0.00,,,0.00,Wunderground v.1.15,2014-01-16 18:59:00,
2014-01-16 13:04:00,32.2,26.4,29.61,NW,316,12.0,21.0,79,0.00,,,0.00,Wunderground v.1.15,2014-01-16 19:04:00,
2014-01-16 13:09:00,32.3,25.9,29.61,NW,318,26.0,26.0,77,0.00,,,0.00,Wunderground v.1.15,2014-01-16 19:09:00,
2014-01-16 13:14:00,32.3,24.3,29.62,NW,321,25.0,32.0,72,0.00,,,0.00,Wunderground v.1.15,2014-01-16 19:14:00,
2014-01-16 13:19:00,32.2,24.2,29.63,NW,304,27.0,32.0,72,0.00,,,0.00,Wunderground v.1.15,2014-01-16 19:19:00,
2014-01-16 13:24:00,31.7,23.4,29.63,NW,313,25.0,29.0,71,0.00,,,0.00,Wunderground v.1.15,2014-01-16 19:24:00,
2014-01-16 13:29:00,31.6,23.6,29.63,NW,326,26.0,30.0,72,0.00,,,0.00,Wunderground v.1.15,2014-01-16 19:29:00,
2014-01-16 13:34:00,31.5,24.2,29.63,NW,313,25.0,30.0,74,0.00,,,0.00,Wunderground v.1.15,2014-01-16 19:34:00,
2014-01-16 13:39:00,31.1,23.5,29.63,NW,323,31.0,31.0,73,0.00,,,0.00,Wunderground v.1.15,2014-01-16 19:39:00,
2014-01-16 13:44:00,30.8,22.8,29.63,NNW,327,30.0,30.0,72,0.00,,,0.00,Wunderground v.1.15,2014-01-16 19:44:00,
2014-01-16 13:49:00,30.4,22.4,29.63,NW,317,23.0,33.0,72,0.00,,,0.00,Wunderground v.1.15,2014-01-16 19:49:00,
2014-01-16 13:54:00,30.4,22.4,29.63,NNW,329,22.0,29.0,72,0.00,,,0.00,Wunderground v.1.15,2014-01-16 19:54:00,
2014-01-16 13:59:00,30.4,22.1,29.63,NW,313,21.0,29.0,71,0.00,,,0.00,Wunderground v.1.15,2014-01-16 19:59:00,
2014-01-16 14:04:00,30.4,22.8,29.64,NNW,328,21.0,27.0,73,0.00,,,0.00,Wunderground v.1.15,2014-01-16 20:04:00,
2014-01-16 14:09:00,30.2,22.6,29.64,NNW,332,20.0,23.0,73,0.00,,,0.00,Wunderground v.1.15,2014-01-16 20:09:00,
2014-01-16 14:14:00,30.1,22.8,29.64,NNW,333,18.0,23.0,74,0.00,,,0.00,Wunderground v.1.15,2014-01-16 20:14:00,
2014-01-16 14:19:00,30.0,22.7,29.65,NW,326,22.0,23.0,74,0.00,,,0.00,Wunderground v.1.15,2014-01-16 20:19:00,
2014-01-16 14:24:00,29.9,22.6,29.65,NW,325,21.0,23.0,74,0.00,,,0.00,Wunderground v.1.15,2014-01-16 20:24:00,
2014-01-16 14:29:00,29.8,22.8,29.65,NW,323,14.0,23.0,75,0.00,,,0.00,Wunderground v.1.15,2014-01-16 20:29:00,
2014-01-16 14:34:00,29.7,23.1,29.65,NNW,334,17.0,19.0,76,0.00,,,0.00,Wunderground v.1.15,2014-01-16 20:34:00,
2014-01-16 14:39:00,29.2,22.6,29.64,NNW,333,19.0,24.0,76,0.00,,,0.00,Wunderground v.1.15,2014-01-16 20:39:00,
2014-01-16 14:44:00,29.0,22.7,29.65,NNW,335,14.0,22.0,77,0.00,,,0.00,Wunderground v.1.15,2014-01-16 20:44:00,
2014-01-16 14:49:00,28.7,22.4,29.65,NNW,346,22.0,24.0,77,0.00,,,0.00,Wunderground v.1.15,2014-01-16 20:49:00,
2014-01-16 14:54:00,28.5,22.8,29.65,NNW,334,19.0,20.0,79,0.00,,,0.00,Wunderground v.1.15,2014-01-16 20:54:00,
2014-01-16 14:59:00,28.3,22.6,29.65,NNW,334,16.0,23.0,79,0.00,,,0.00,Wunderground v.1.15,2014-01-16 20:59:00,
2014-01-16 15:04:00,28.2,22.8,29.66,NW,311,21.0,23.0,80,0.00,,,0.00,Wunderground v.1.15,2014-01-16 21:04:00,
2014-01-16 15:09:00,28.0,22.6,29.65,NNW,340,21.0,21.0,80,0.00,,,0.00,Wunderground v.1.15,2014-01-16 21:09:00,
2014-01-16 15:14:00,27.9,22.2,29.65,NW,326,14.0,19.0,79,0.00,,,0.00,Wunderground v.1.15,2014-01-16 21:14:00,
2014-01-16 15:19:00,27.9,22.5,29.65,NW,325,18.0,20.0,80,0.00,,,0.00,Wunderground v.1.15,2014-01-16 21:19:00,
2014-01-16 15:24:00,28.1,22.7,29.65,NW,324,16.0,18.0,80,0.00,,,0.00,Wunderground v.1.15,2014-01-16 21:24:00,
2014-01-16 15:29:00,28.1,21.5,29.65,NNW,329,16.0,22.0,76,0.00,,,0.00,Wunderground v.1.15,2014-01-16 21:29:00,
2014-01-16 15:34:00,27.9,20.4,29.65,NNW,336,17.0,25.0,73,0.00,,,0.00,Wunderground v.1.15,2014-01-16 21:34:00,
2014-01-16 15:39:00,27.8,20.6,29.65,NNW,335,23.0,25.0,74,0.00,,,0.00,Wunderground v.1.15,2014-01-16 21:39:00,
2014-01-16 15:44:00,27.5,20.3,29.66,NNW,336,20.0,22.0,74,0.00,,,0.00,Wunderground v.1.15,2014-01-16 21:44:00,
2014-01-16 15:49:00,27.4,20.5,29.66,NW,317,18.0,22.0,75,0.00,,,0.00,Wunderground v.1.15,2014-01-16 21:49:00,
2014-01-16 15:54:00,27.2,20.6,29.66,NNW,331,17.0,20.0,76,0.00,,,0.00,Wunderground v.1.15,2014-01-16 21:54:00,
2014-01-16 15:59:00,27.1,20.5,29.67,North,355,22.0,22.0,76,0.00,,,0.00,Wunderground v.1.15,2014-01-16 21:59:00,
2014-01-16 16:04:00,26.6,19.7,29.67,NNW,334,19.0,26.0,75,0.00,,,0.00,Wunderground v.1.15,2014-01-16 22:04:00,
2014-01-16 16:09:00,26.3,19.8,29.67,NNW,335,20.0,23.0,76,0.00,,,0.00,Wunderground v.1.15,2014-01-16 22:09:00,
2014-01-16 16:14:00,25.6,18.8,29.68,NNW,332,21.0,28.0,75,0.00,,,0.00,Wunderground v.1.15,2014-01-16 22:14:00,
2014-01-16 16:19:00,24.6,18.1,29.68,NNW,346,17.0,29.0,76,0.00,,,0.00,Wunderground v.1.15,2014-01-16 22:19:00,
2014-01-16 16:25:00,24.0,18.1,29.68,NNW,334,22.0,27.0,78,0.00,,,0.00,Wunderground v.1.15,2014-01-16 22:25:00,
2014-01-16 16:30:00,23.7,17.8,29.69,NNW,329,18.0,27.0,78,0.00,,,0.00,Wunderground v.1.15,2014-01-16 22:30:00,
2014-01-16 16:35:00,23.6,17.4,29.70,NNW,333,17.0,25.0,77,0.00,,,0.00,Wunderground v.1.15,2014-01-16 22:35:00,
2014-01-16 16:40:00,23.0,15.0,29.70,NW,314,25.0,30.0,71,0.00,,,0.00,Wunderground v.1.15,2014-01-16 22:40:00,
2014-01-16 16:45:00,21.9,13.9,29.70,NW,315,22.0,29.0,71,0.00,,,0.00,Wunderground v.1.15,2014-01-16 22:45:00,
2014-01-16 16:50:00,21.1,13.8,29.71,NW,317,21.0,29.0,73,0.00,,,0.00,Wunderground v.1.15,2014-01-16 22:50:00,
2014-01-16 16:55:00,20.8,13.8,29.71,NNW,333,26.0,29.0,74,0.00,,,0.00,Wunderground v.1.15,2014-01-16 22:55:00,
2014-01-16 17:00:00,20.4,14.0,29.71,NNW,338,24.0,27.0,76,0.00,,,0.00,Wunderground v.1.15,2014-01-16 23:00:00,
2014-01-16 17:05:00,19.3,12.7,29.72,NNW,333,23.0,30.0,75,0.00,,,0.00,Wunderground v.1.15,2014-01-16 23:05:00,
2014-01-16 17:10:00,18.6,11.7,29.72,NNW,337,32.0,33.0,74,0.00,,,0.00,Wunderground v.1.15,2014-01-16 23:10:00,
2014-01-16 17:15:00,18.0,9.5,29.72,NNW,327,31.0,34.0,69,0.00,,,0.00,Wunderground v.1.15,2014-01-16 23:15:00,
2014-01-16 17:20:00,17.5,9.4,29.73,NW,323,30.0,34.0,70,0.00,,,0.00,Wunderground v.1.15,2014-01-16 23:20:00,
2014-01-16 17:25:00,17.3,9.2,29.74,NNW,329,24.0,30.0,70,0.00,,,0.00,Wunderground v.1.15,2014-01-16 23:25:00,
2014-01-16 17:30:00,16.9,8.2,29.74,NW,319,25.0,31.0,68,0.00,,,0.00,Wunderground v.1.15,2014-01-16 23:30:00,
2014-01-16 17:35:00,16.6,9.1,29.74,NNW,335,22.0,29.0,72,0.00,,,0.00,Wunderground v.1.15,2014-01-16 23:35:00,
2014-01-16 17:40:00,16.4,8.9,29.75,NNW,327,23.0,31.0,72,0.00,,,0.00,Wunderground v.1.15,2014-01-16 23:40:00,
2014-01-16 17:45:00,16.2,9.1,29.75,NW,309,25.0,28.0,73,0.00,,,0.00,Wunderground v.1.15,2014-01-16 23:45:00,
2014-01-16 17:50:00,15.8,8.4,29.75,NNW,327,25.0,31.0,72,0.00,,,0.00,Wunderground v.1.15,2014-01-16 23:50:00,
2014-01-16 17:55:00,15.5,8.4,29.75,NW,325,23.0,30.0,73,0.00,,,0.00,Wunderground v.1.15,2014-01-16 23:55:00,
2014-01-16 18:00:00,15.3,8.8,29.76,NW,321,21.0,31.0,75,0.00,,,0.00,Wunderground v.1.15,2014-01-17 00:00:00,
2014-01-16 18:05:00,14.5,6.8,29.76,NNW,340,28.0,30.0,71,0.00,,,0.00,Wunderground v.1.15,2014-01-17 00:05:00,
2014-01-16 18:10:00,13.7,5.7,29.77,NNW,337,27.0,31.0,70,0.00,,,0.00,Wunderground v.1.15,2014-01-17 00:10:00,
2014-01-16 18:15:00,13.5,5.8,29.77,NNW,345,27.0,34.0,71,0.00,,,0.00,Wunderground v.1.15,2014-01-17 00:15:00,
2014-01-16 18:22:00,13.2,5.9,29.78,NW,325,24.0,25.0,72,0.00,,,0.00,Wunderground v.1.15,2014-01-17 00:22:00,
2014-01-16 18:27:00,13.1,6.4,29.79,NNW,331,23.0,30.0,74,0.00,,,0.00,Wunderground v.1.15,2014-01-17 00:27:00,
2014-01-16 18:32:00,12.9,6.8,29.79,NW,325,24.0,30.0,76,0.00,,,0.00,Wunderground v.1.15,2014-01-17 00:32:00,
2014-01-16 18:37:00,12.1,7.1,29.79,NNW,337,23.0,30.0,80,0.00,,,0.00,Wunderground v.1.15,2014-01-17 00:37:00,
2014-01-16 18:43:00,11.8,6.3,29.80,NW,325,20.0,25.0,78,0.00,,,0.00,Wunderground v.1.15,2014-01-17 00:43:00,
2014-01-16 18:48:00,11.4,5.9,29.80,NW,323,26.0,31.0,78,0.00,,,0.00,Wunderground v.1.15,2014-01-17 00:48:00,
2014-01-16 18:53:00,11.3,5.8,29.80,NW,323,19.0,25.0,78,0.00,,,0.00,Wunderground v.1.15,2014-01-17 00:53:00,
2014-01-16 18:58:00,11.3,5.5,29.81,NNW,327,28.0,29.0,77,0.00,,,0.00,Wunderground v.1.15,2014-01-17 00:58:00,
2014-01-16 19:03:00,11.1,5.6,29.81,NW,321,24.0,24.0,78,0.00,,,0.00,Wunderground v.1.15,2014-01-17 01:03:00,
2014-01-16 19:08:00,11.0,4.9,29.82,NW,322,20.0,28.0,76,0.00,,,0.00,Wunderground v.1.15,2014-01-17 01:08:00,
2014-01-16 19:13:00,10.8,5.8,29.82,NW,321,30.0,30.0,80,0.00,,,0.00,Wunderground v.1.15,2014-01-17 01:13:00,
2014-01-16 19:18:00,10.4,5.7,29.82,NNW,331,23.0,30.0,81,0.00,,,0.00,Wunderground v.1.15,2014-01-17 01:18:00,
2014-01-16 19:23:00,10.4,5.5,29.82,NW,322,21.0,23.0,80,0.00,,,0.00,Wunderground v.1.15,2014-01-17 01:23:00,
2014-01-16 19:28:00,10.4,4.9,29.82,NW,319,25.0,26.0,78,0.00,,,0.00,Wunderground v.1.15,2014-01-17 01:28:00,
2014-01-16 19:33:00,10.3,4.5,29.82,NW,316,26.0,26.0,77,0.00,,,0.00,Wunderground v.1.15,2014-01-17 01:33:00,
2014-01-16 19:38:00,10.2,4.1,29.82,NNW,327,28.0,30.0,76,0.00,,,0.00,Wunderground v.1.15,2014-01-17 01:38:00,
2014-01-16 19:43:00,10.3,4.5,29.83,NW,310,23.0,26.0,77,0.00,,,0.00,Wunderground v.1.15,2014-01-17 01:43:00,
2014-01-16 19:48:00,9.9,5.0,29.82,NNW,334,22.0,30.0,80,0.00,,,0.00,Wunderground v.1.15,2014-01-17 01:48:00,
2014-01-16 19:53:00,9.6,5.5,29.83,NW,326,21.0,23.0,83,0.00,,,0.00,Wunderground v.1.15,2014-01-17 01:53:00,
2014-01-16 19:58:00,9.7,5.8,29.83,NNW,335,21.0,28.0,84,0.00,,,0.00,Wunderground v.1.15,2014-01-17 01:58:00,
2014-01-16 20:03:00,9.6,5.2,29.83,NW,323,20.0,22.0,82,0.00,,,0.00,Wunderground v.1.15,2014-01-17 02:03:00,
2014-01-16 20:08:00,9.6,4.9,29.84,WNW,303,18.0,26.0,81,0.00,,,0.00,Wunderground v.1.15,2014-01-17 02:08:00,
2014-01-16 20:13:00,9.7,4.2,29.84,NNW,341,20.0,24.0,78,0.00,,,0.00,Wunderground v.1.15,2014-01-17 02:13:00,
2014-01-16 20:18:00,9.8,3.7,29.84,NNW,330,25.0,31.0,76,0.00,,,0.00,Wunderground v.1.15,2014-01-17 02:18:00,
2014-01-16 20:23:00,9.9,4.1,29.85,NW,324,14.0,22.0,77,0.00,,,0.00,Wunderground v.1.15,2014-01-17 02:23:00,
2014-01-16 20:28:00,9.8,3.7,29.85,NNW,327,22.0,23.0,76,0.00,,,0.00,Wunderground v.1.15,2014-01-17 02:28:00,
2014-01-16 20:33:00,9.8,3.7,29.84,NNW,328,18.0,23.0,76,0.00,,,0.00,Wunderground v.1.15,2014-01-17 02:33:00,
2014-01-16 20:38:00,9.7,4.5,29.85,NW,317,18.0,25.0,79,0.00,,,0.00,Wunderground v.1.15,2014-01-17 02:38:00,
2014-01-16 20:43:00,9.4,5.0,29.85,NW,315,18.0,20.0,82,0.00,,,0.00,Wunderground v.1.15,2014-01-17 02:43:00,
2014-01-16 20:48:00,9.4,4.7,29.85,NW,324,20.0,25.0,81,0.00,,,0.00,Wunderground v.1.15,2014-01-17 02:48:00,
2014-01-16 20:53:00,9.3,4.1,29.85,NW,324,16.0,21.0,79,0.00,,,0.00,Wunderground v.1.15,2014-01-17 02:53:00,
2014-01-16 20:58:00,9.1,4.5,29.85,NW,325,19.0,26.0,81,0.00,,,0.00,Wunderground v.1.15,2014-01-17 02:58:00,
2014-01-16 21:03:00,9.0,4.1,29.86,NW,315,15.0,20.0,80,0.00,,,0.00,Wunderground v.1.15,2014-01-17 03:03:00,
2014-01-16 21:08:00,9.0,3.5,29.86,NW,315,21.0,28.0,78,0.00,,,0.00,Wunderground v.1.15,2014-01-17 03:08:00,
2014-01-16 21:13:00,8.7,3.5,29.86,NW,321,23.0,30.0,79,0.00,,,0.00,Wunderground v.1.15,2014-01-17 03:13:00,
2014-01-16 21:18:00,8.5,3.3,29.86,NW,309,20.0,30.0,79,0.00,,,0.00,Wunderground v.1.15,2014-01-17 03:18:00,
2014-01-16 21:23:00,8.3,3.1,29.86,NW,315,22.0,26.0,79,0.00,,,0.00,Wunderground v.1.15,2014-01-17 03:23:00,
2014-01-16 21:29:00,8.0,3.1,29.86,NNW,333,16.0,26.0,80,0.00,,,0.00,Wunderground v.1.15,2014-01-17 03:29:00,